Time;durP1;ratioP1;P1;durP2;ratioP2;P2;SDS_P1;SDS_P2;PMS_P1;PMS_P2;Temp;Humidity;BMP_temperature;BMP_pressure;BME280_temperature;BME280_humidity;BME280_pressure;Samples;Min_cycle;Max_cycle;Signal;HPM_P1;HPM_P2
2022/08/16 00:01:15;;;;;;;5.05;4.75;;;;;;;;;;5076560;28;20671;-59
2022/08/16 00:04:03;;;;;;;5.07;4.78;;;;;;;;;;5095767;27;20230;-59
2022/08/16 00:06:50;;;;;;;5.20;4.90;;;;;;;;;;5116514;27;20351;-58
2022/08/16 00:09:37;;;;;;;5.05;4.72;;;;;;;;;;5119046;27;20284;-59
2022/08/16 00:12:24;;;;;;;5.28;4.97;;;;;;;;;;5102173;27;20217;-59
2022/08/16 00:15:16;;;;;;;5.03;4.72;;;;;;;;;;5120198;27;20232;-59
2022/08/16 00:18:04;;;;;;;4.85;4.55;;;;;;;;;;5116167;27;20231;-59
2022/08/16 00:20:51;;;;;;;5.00;4.70;;;;;;;;;;5120068;27;20673;-59
2022/08/16 00:23:38;;;;;;;4.88;4.47;;;;;;;;;;5115032;27;20235;-59
2022/08/16 00:26:25;;;;;;;5.20;4.90;;;;;;;;;;5114404;27;20211;-59
2022/08/16 00:29:14;;;;;;;5.35;5.05;;;;;;;;;;5107021;27;20329;-59
2022/08/16 00:32:04;;;;;;;4.80;4.60;;;;;;;;;;5106648;27;20223;-59
2022/08/16 00:34:51;;;;;;;5.20;4.80;;;;;;;;;;5116749;27;20201;-59
2022/08/16 00:37:39;;;;;;;5.55;5.15;;;;;;;;;;5104233;28;20203;-59
2022/08/16 00:40:30;;;;;;;5.18;4.80;;;;;;;;;;5119862;27;20671;-59
2022/08/16 00:43:20;;;;;;;7.25;4.80;;;;;;;;;;5111813;27;20210;-58
2022/08/16 00:46:14;;;;;;;4.90;4.60;;;;;;;;;;5115905;27;20642;-59
2022/08/16 00:49:04;;;;;;;5.00;4.70;;;;;;;;;;5107768;27;20571;-59
2022/08/16 00:51:52;;;;;;;5.25;4.95;;;;;;;;;;5114496;27;20224;-59
2022/08/16 00:54:39;;;;;;;4.95;4.65;;;;;;;;;;5112709;27;20201;-59
2022/08/16 00:57:27;;;;;;;5.30;5.00;;;;;;;;;;5118730;27;20237;-60
2022/08/16 01:00:16;;;;;;;5.20;4.90;;;;;;;;;;5101509;27;20702;-59
2022/08/16 01:03:06;;;;;;;5.40;5.10;;;;;;;;;;5111856;27;20685;-59
2022/08/16 01:05:55;;;;;;;4.97;4.78;;;;;;;;;;5107171;27;20638;-59
2022/08/16 01:08:45;;;;;;;5.05;4.75;;;;;;;;;;5121725;27;20217;-59
2022/08/16 01:11:34;;;;;;;5.13;4.82;;;;;;;;;;5106041;28;20267;-59
2022/08/16 01:14:26;;;;;;;5.45;5.10;;;;;;;;;;5114668;28;20630;-59
2022/08/16 01:17:14;;;;;;;5.30;5.00;;;;;;;;;;5096860;28;20203;-59
2022/08/16 01:20:07;;;;;;;5.70;5.30;;;;;;;;;;5109787;28;20223;-59
2022/08/16 01:23:02;;;;;;;5.28;4.97;;;;;;;;;;5113667;28;20205;-58
2022/08/16 01:25:52;;;;;;;5.43;5.10;;;;;;;;;;5111833;28;20678;-59
2022/08/16 01:28:40;;;;;;;5.50;5.20;;;;;;;;;;5112705;28;20211;-59
2022/08/16 01:31:28;;;;;;;6.13;5.20;;;;;;;;;;5112349;28;20383;-58
2022/08/16 01:34:16;;;;;;;4.93;4.63;;;;;;;;;;5111418;28;20201;-59
2022/08/16 01:37:06;;;;;;;5.07;4.78;;;;;;;;;;5112664;28;20290;-58
2022/08/16 01:39:53;;;;;;;5.88;5.47;;;;;;;;;;5112373;28;20221;-59
2022/08/16 01:42:42;;;;;;;5.43;5.10;;;;;;;;;;5115938;27;20197;-59
2022/08/16 01:45:29;;;;;;;5.50;5.10;;;;;;;;;;5116380;27;20224;-59
2022/08/16 01:48:16;;;;;;;5.78;5.35;;;;;;;;;;5118589;27;20646;-59
2022/08/16 01:51:05;;;;;;;5.30;5.00;;;;;;;;;;5120559;27;20208;-59
2022/08/16 01:53:52;;;;;;;5.72;5.32;;;;;;;;;;5115400;27;20229;-58
2022/08/16 01:56:40;;;;;;;5.82;5.47;;;;;;;;;;5121870;27;20673;-58
2022/08/16 01:59:29;;;;;;;5.40;5.10;;;;;;;;;;5108811;27;20208;-58
2022/08/16 02:02:16;;;;;;;5.10;4.80;;;;;;;;;;5120808;27;20251;-58
2022/08/16 02:05:04;;;;;;;5.97;5.57;;;;;;;;;;5102536;28;20237;-59
2022/08/16 02:07:51;;;;;;;5.47;5.18;;;;;;;;;;5118303;27;20201;-59
2022/08/16 02:10:38;;;;;;;5.72;5.35;;;;;;;;;;5111497;27;20209;-59
2022/08/16 02:13:26;;;;;;;5.93;5.45;;;;;;;;;;5112620;27;20217;-59
2022/08/16 02:16:14;;;;;;;5.45;5.15;;;;;;;;;;5111043;27;20689;-59
2022/08/16 02:19:01;;;;;;;5.80;5.50;;;;;;;;;;5117443;27;20202;-59
2022/08/16 02:21:52;;;;;;;5.53;5.22;;;;;;;;;;5110272;27;20206;-58
2022/08/16 02:24:40;;;;;;;5.70;5.40;;;;;;;;;;5106805;27;20206;-59
2022/08/16 02:27:27;;;;;;;5.97;5.60;;;;;;;;;;5109998;27;20329;-58
2022/08/16 02:30:18;;;;;;;5.50;5.20;;;;;;;;;;5106351;27;20221;-58
2022/08/16 02:33:07;;;;;;;5.60;5.30;;;;;;;;;;5112532;27;20240;-58
2022/08/16 02:35:54;;;;;;;5.90;5.53;;;;;;;;;;5122917;27;20224;-59
2022/08/16 02:38:41;;;;;;;5.47;5.18;;;;;;;;;;5111937;27;20678;-58
2022/08/16 02:41:28;;;;;;;5.70;5.30;;;;;;;;;;5117510;27;20247;-59
2022/08/16 02:44:16;;;;;;;5.45;5.15;;;;;;;;;;5109804;27;20282;-59
2022/08/16 02:47:03;;;;;;;5.93;5.63;;;;;;;;;;5109731;27;20223;-59
2022/08/16 02:49:51;;;;;;;5.70;5.40;;;;;;;;;;5108256;27;20234;-58
2022/08/16 02:52:38;;;;;;;5.70;5.40;;;;;;;;;;5117756;27;20246;-59
2022/08/16 02:55:25;;;;;;;5.80;5.40;;;;;;;;;;5116280;27;20205;-58
2022/08/16 02:58:12;;;;;;;5.75;5.40;;;;;;;;;;5117304;27;20609;-58
2022/08/16 03:01:00;;;;;;;5.97;5.65;;;;;;;;;;5113500;27;20205;-59
2022/08/16 03:03:47;;;;;;;5.97;5.68;;;;;;;;;;5111759;27;20277;-59
2022/08/16 03:06:36;;;;;;;5.75;5.45;;;;;;;;;;5115163;27;20294;-59
2022/08/16 03:09:23;;;;;;;5.63;5.32;;;;;;;;;;5109221;27;20199;-59
2022/08/16 03:12:10;;;;;;;5.85;5.45;;;;;;;;;;5116185;27;20213;-59
2022/08/16 03:14:57;;;;;;;6.10;5.70;;;;;;;;;;5103723;27;20207;-59
2022/08/16 03:17:45;;;;;;;5.57;5.28;;;;;;;;;;5116819;27;20204;-58
2022/08/16 03:20:32;;;;;;;5.72;5.43;;;;;;;;;;5113386;27;20231;-59
2022/08/16 03:23:21;;;;;;;5.80;5.50;;;;;;;;;;5117935;27;20209;-58
2022/08/16 03:26:08;;;;;;;5.75;5.45;;;;;;;;;;5106568;27;20311;-59
2022/08/16 03:28:55;;;;;;;5.35;5.05;;;;;;;;;;5119545;27;20201;-59
2022/08/16 03:31:42;;;;;;;5.55;5.15;;;;;;;;;;5109364;27;20583;-59
2022/08/16 03:34:32;;;;;;;5.30;5.00;;;;;;;;;;5119468;27;20211;-59
2022/08/16 03:37:18;;;;;;;5.50;5.20;;;;;;;;;;5113040;27;20541;-59
2022/08/16 03:40:09;;;;;;;5.55;5.25;;;;;;;;;;5121227;27;20289;-59
2022/08/16 03:42:56;;;;;;;5.40;5.10;;;;;;;;;;5109385;27;20568;-59
2022/08/16 03:45:43;;;;;;;6.00;5.70;;;;;;;;;;5107775;27;20666;-59
2022/08/16 03:48:32;;;;;;;5.70;5.30;;;;;;;;;;5104034;27;20263;-58
2022/08/16 03:51:19;;;;;;;5.55;5.25;;;;;;;;;;5117899;27;20259;-58
2022/08/16 03:54:06;;;;;;;5.15;4.85;;;;;;;;;;5105723;27;20214;-59
2022/08/16 03:56:55;;;;;;;5.50;5.20;;;;;;;;;;5110960;27;20207;-59
2022/08/16 03:59:42;;;;;;;5.38;5.07;;;;;;;;;;5104946;27;20288;-59
2022/08/16 04:02:29;;;;;;;5.20;4.90;;;;;;;;;;5118757;27;20204;-58
2022/08/16 04:05:18;;;;;;;5.22;4.93;;;;;;;;;;5106475;27;20297;-59
2022/08/16 04:08:06;;;;;;;5.30;5.00;;;;;;;;;;5117022;27;20582;-59
2022/08/16 04:10:54;;;;;;;5.45;5.15;;;;;;;;;;5108027;27;20209;-58
2022/08/16 04:13:43;;;;;;;5.00;4.70;;;;;;;;;;5109271;27;20691;-59
2022/08/16 04:16:31;;;;;;;5.35;5.05;;;;;;;;;;5111258;27;20203;-58
2022/08/16 04:19:18;;;;;;;5.60;5.20;;;;;;;;;;5106806;27;20675;-59
2022/08/16 04:22:05;;;;;;;5.28;4.97;;;;;;;;;;5110280;27;20672;-59
2022/08/16 04:24:52;;;;;;;5.25;4.95;;;;;;;;;;5105660;27;20210;-59
2022/08/16 04:27:40;;;;;;;5.45;5.00;;;;;;;;;;5109832;27;20247;-58
2022/08/16 04:30:29;;;;;;;5.00;4.70;;;;;;;;;;5100577;28;20602;-59
2022/08/16 04:33:16;;;;;;;5.32;5.03;;;;;;;;;;5113904;27;20703;-58
2022/08/16 04:36:04;;;;;;;5.05;4.75;;;;;;;;;;5112581;27;20205;-59
2022/08/16 04:38:51;;;;;;;5.35;5.00;;;;;;;;;;5116212;27;20209;-59
2022/08/16 04:41:38;;;;;;;5.13;4.82;;;;;;;;;;5110626;27;20207;-59
2022/08/16 04:44:25;;;;;;;5.22;4.93;;;;;;;;;;5110964;27;20273;-59
2022/08/16 04:47:14;;;;;;;5.10;4.80;;;;;;;;;;5112522;27;20229;-59
2022/08/16 04:50:01;;;;;;;5.18;4.88;;;;;;;;;;5114478;27;20198;-59
2022/08/16 04:52:50;;;;;;;4.65;4.25;;;;;;;;;;5103890;27;20230;-59
2022/08/16 04:55:37;;;;;;;5.10;4.80;;;;;;;;;;5115662;27;20270;-59
2022/08/16 04:58:24;;;;;;;4.75;4.55;;;;;;;;;;5105936;27;20209;-59
2022/08/16 05:01:11;;;;;;;4.80;4.50;;;;;;;;;;5112123;27;20323;-59
2022/08/16 05:04:00;;;;;;;4.75;4.53;;;;;;;;;;5101267;28;20294;-59
2022/08/16 05:06:47;;;;;;;4.65;4.45;;;;;;;;;;5114584;27;20285;-59
2022/08/16 05:09:34;;;;;;;5.10;4.80;;;;;;;;;;5102748;28;20225;-59
2022/08/16 05:12:20;;;;;;;4.50;4.30;;;;;;;;;;5116448;28;20253;-59
2022/08/16 05:15:09;;;;;;;4.70;4.50;;;;;;;;;;5105044;28;20217;-59
2022/08/16 05:17:56;;;;;;;4.68;4.43;;;;;;;;;;5117298;28;20209;-58
2022/08/16 05:20:45;;;;;;;5.10;4.80;;;;;;;;;;5107226;28;20205;-59
2022/08/16 05:23:32;;;;;;;4.80;4.50;;;;;;;;;;5116124;28;20202;-58
2022/08/16 05:26:19;;;;;;;4.28;4.07;;;;;;;;;;5110976;28;20209;-59
2022/08/16 05:29:06;;;;;;;4.80;4.50;;;;;;;;;;5114605;28;21069;-58
2022/08/16 05:31:53;;;;;;;4.68;4.47;;;;;;;;;;5105327;28;20262;-59
2022/08/16 05:34:40;;;;;;;4.80;4.55;;;;;;;;;;5104129;28;20196;-59
2022/08/16 05:37:28;;;;;;;4.32;4.10;;;;;;;;;;5103109;28;20339;-59
2022/08/16 05:40:15;;;;;;;4.22;4.03;;;;;;;;;;5103186;28;20209;-59
2022/08/16 05:43:02;;;;;;;4.47;4.28;;;;;;;;;;5105500;28;20205;-59
2022/08/16 05:45:51;;;;;;;4.70;4.40;;;;;;;;;;5106319;28;20205;-58
2022/08/16 05:48:38;;;;;;;4.22;4.03;;;;;;;;;;5108262;28;20615;-59
2022/08/16 05:51:25;;;;;;;4.47;4.28;;;;;;;;;;5107877;28;20211;-59
2022/08/16 05:54:17;;;;;;;5.03;4.72;;;;;;;;;;5107016;28;20253;-59
2022/08/16 05:57:04;;;;;;;4.25;4.05;;;;;;;;;;5107485;28;20199;-59
2022/08/16 05:59:52;;;;;;;4.38;4.18;;;;;;;;;;5106877;28;20734;-58
2022/08/16 06:02:39;;;;;;;4.28;4.03;;;;;;;;;;5108050;28;20201;-59
2022/08/16 06:05:26;;;;;;;4.32;4.13;;;;;;;;;;5105809;28;20311;-59
2022/08/16 06:08:13;;;;;;;4.10;3.90;;;;;;;;;;5106540;28;20283;-60
2022/08/16 06:11:01;;;;;;;4.25;4.00;;;;;;;;;;5109856;28;20678;-59
2022/08/16 06:13:48;;;;;;;4.50;4.20;;;;;;;;;;5105754;28;20367;-59
2022/08/16 06:16:35;;;;;;;4.63;4.43;;;;;;;;;;5116144;28;20205;-59
2022/08/16 06:19:22;;;;;;;4.40;4.20;;;;;;;;;;5109195;28;20751;-59
2022/08/16 06:22:09;;;;;;;4.00;3.80;;;;;;;;;;5115538;28;20648;-59
2022/08/16 06:24:56;;;;;;;4.50;4.20;;;;;;;;;;5102318;28;20254;-59
2022/08/16 06:27:45;;;;;;;4.15;3.95;;;;;;;;;;5113530;27;20284;-59
2022/08/16 06:30:32;;;;;;;4.20;4.00;;;;;;;;;;5108303;27;20204;-59
2022/08/16 06:33:19;;;;;;;4.13;3.92;;;;;;;;;;5108751;27;20261;-59
2022/08/16 06:36:07;;;;;;;4.05;3.85;;;;;;;;;;5119357;27;20338;-59
2022/08/16 06:38:54;;;;;;;4.13;3.92;;;;;;;;;;5121396;27;20216;-59
2022/08/16 06:41:42;;;;;;;4.05;3.85;;;;;;;;;;5109920;27;20710;-59
2022/08/16 06:44:30;;;;;;;4.18;3.97;;;;;;;;;;5122067;27;20206;-59
2022/08/16 06:47:17;;;;;;;3.97;3.78;;;;;;;;;;5109867;27;20207;-58
2022/08/16 06:50:05;;;;;;;3.78;3.58;;;;;;;;;;5122705;27;20255;-59
2022/08/16 06:52:52;;;;;;;4.15;3.95;;;;;;;;;;5108028;27;20225;-59
2022/08/16 06:55:41;;;;;;;4.53;4.20;;;;;;;;;;5116159;27;20246;-58
2022/08/16 06:58:28;;;;;;;4.15;3.90;;;;;;;;;;5114152;27;20237;-59
2022/08/16 07:01:17;;;;;;;4.22;4.03;;;;;;;;;;5111071;27;20210;-59
2022/08/16 07:04:04;;;;;;;4.22;3.92;;;;;;;;;;5111700;27;20601;-59
2022/08/16 07:06:51;;;;;;;4.00;3.70;;;;;;;;;;5107046;27;20702;-59
2022/08/16 07:09:38;;;;;;;4.07;3.88;;;;;;;;;;5111438;27;20209;-59
2022/08/16 07:12:25;;;;;;;4.07;3.88;;;;;;;;;;5110069;27;20764;-59
2022/08/16 07:15:12;;;;;;;4.55;4.32;;;;;;;;;;5111330;27;20210;-60
2022/08/16 07:18:00;;;;;;;3.60;3.40;;;;;;;;;;5105252;27;20248;-59
2022/08/16 07:20:50;;;;;;;4.18;3.78;;;;;;;;;;5109979;27;20213;-59
2022/08/16 07:23:37;;;;;;;4.20;4.00;;;;;;;;;;5110273;27;20205;-59
2022/08/16 07:26:25;;;;;;;4.03;3.83;;;;;;;;;;5114864;27;20200;-59
2022/08/16 07:29:12;;;;;;;4.10;3.90;;;;;;;;;;5106901;27;20203;-59
2022/08/16 07:32:00;;;;;;;4.00;3.78;;;;;;;;;;5111344;27;20201;-59
2022/08/16 07:34:48;;;;;;;3.92;3.72;;;;;;;;;;5113075;27;20274;-59
2022/08/16 07:37:35;;;;;;;3.92;3.72;;;;;;;;;;5106960;27;20296;-60
2022/08/16 07:40:24;;;;;;;4.15;3.85;;;;;;;;;;5111207;27;20202;-59
2022/08/16 07:43:11;;;;;;;3.85;3.65;;;;;;;;;;5112144;27;20193;-59
2022/08/16 07:45:58;;;;;;;3.85;3.65;;;;;;;;;;5112964;27;20205;-59
2022/08/16 07:48:45;;;;;;;4.10;3.90;;;;;;;;;;5106620;27;20806;-59
2022/08/16 07:51:35;;;;;;;3.90;3.63;;;;;;;;;;5112384;27;20314;-59
2022/08/16 07:54:22;;;;;;;3.88;3.67;;;;;;;;;;5115349;27;20214;-59
2022/08/16 07:57:10;;;;;;;3.95;3.75;;;;;;;;;;5109976;27;20201;-59
2022/08/16 07:59:58;;;;;;;3.78;3.58;;;;;;;;;;5116384;27;20195;-59
2022/08/16 08:02:45;;;;;;;3.85;3.65;;;;;;;;;;5103698;27;20206;-59
2022/08/16 08:05:32;;;;;;;4.00;3.80;;;;;;;;;;5121087;27;20764;-60
2022/08/16 08:08:21;;;;;;;4.22;3.97;;;;;;;;;;5109608;27;20579;-59
2022/08/16 08:11:08;;;;;;;3.80;3.60;;;;;;;;;;5117814;27;20205;-59
2022/08/16 08:13:56;;;;;;;4.35;4.15;;;;;;;;;;5097912;28;20685;-59
2022/08/16 08:16:43;;;;;;;3.90;3.63;;;;;;;;;;5118040;27;20206;-60
2022/08/16 08:19:30;;;;;;;3.97;3.78;;;;;;;;;;5108544;27;20255;-59
2022/08/16 08:22:17;;;;;;;3.95;3.75;;;;;;;;;;5114804;27;20403;-60
2022/08/16 08:25:08;;;;;;;3.90;3.70;;;;;;;;;;5106698;27;20670;-59
2022/08/16 08:27:55;;;;;;;4.32;4.07;;;;;;;;;;5106618;27;20665;-59
2022/08/16 08:30:42;;;;;;;4.03;3.83;;;;;;;;;;5108601;27;20278;-59
2022/08/16 08:33:30;;;;;;;3.83;3.63;;;;;;;;;;5113934;27;20226;-59
2022/08/16 08:36:24;;;;;;;3.85;3.65;;;;;;;;;;5111733;27;20201;-60
2022/08/16 08:39:11;;;;;;;3.80;3.60;;;;;;;;;;5112051;27;20644;-59
2022/08/16 08:42:01;;;;;;;3.58;3.38;;;;;;;;;;5115203;27;20214;-59
2022/08/16 08:44:48;;;;;;;3.80;3.60;;;;;;;;;;5114450;27;20221;-60
2022/08/16 08:47:35;;;;;;;3.80;3.60;;;;;;;;;;5114559;27;20200;-59
2022/08/16 08:50:23;;;;;;;4.05;3.85;;;;;;;;;;5108987;27;20226;-59
2022/08/16 08:53:10;;;;;;;4.10;3.90;;;;;;;;;;5107070;27;20653;-61
2022/08/16 08:55:57;;;;;;;3.92;3.63;;;;;;;;;;5112532;27;20213;-59
2022/08/16 08:58:46;;;;;;;3.95;3.75;;;;;;;;;;5114422;27;20275;-60
2022/08/16 09:01:35;;;;;;;3.80;3.60;;;;;;;;;;5113448;27;20204;-60
2022/08/16 09:04:22;;;;;;;3.50;3.38;;;;;;;;;;5115748;27;20237;-59
2022/08/16 09:07:10;;;;;;;4.03;3.83;;;;;;;;;;5111422;27;20230;-59
2022/08/16 09:09:57;;;;;;;3.85;3.65;;;;;;;;;;5112695;27;20205;-60
2022/08/16 09:12:46;;;;;;;3.67;3.47;;;;;;;;;;5106039;28;20770;-60
2022/08/16 09:15:35;;;;;;;4.05;3.85;;;;;;;;;;5110941;28;20209;-60
2022/08/16 09:18:22;;;;;;;3.85;3.55;;;;;;;;;;5109613;28;20209;-60
2022/08/16 09:21:10;;;;;;;4.22;4.03;;;;;;;;;;5110087;28;20574;-60
2022/08/16 09:23:57;;;;;;;3.80;3.60;;;;;;;;;;5103104;28;20202;-59
2022/08/16 09:26:44;;;;;;;3.70;3.50;;;;;;;;;;5111055;28;20200;-59
2022/08/16 09:29:31;;;;;;;3.80;3.60;;;;;;;;;;5104665;28;20275;-59
2022/08/16 09:32:20;;;;;;;4.20;4.00;;;;;;;;;;5114004;28;20204;-59
2022/08/16 09:35:08;;;;;;;3.90;3.70;;;;;;;;;;5108703;28;20592;-59
2022/08/16 09:37:55;;;;;;;3.80;3.50;;;;;;;;;;5123520;28;20297;-59
2022/08/16 09:40:45;;;;;;;3.65;3.47;;;;;;;;;;5112315;28;20214;-59
2022/08/16 09:43:34;;;;;;;3.97;3.78;;;;;;;;;;5111387;28;20199;-59
2022/08/16 09:46:22;;;;;;;3.65;3.45;;;;;;;;;;5107098;28;20210;-59
2022/08/16 09:49:10;;;;;;;3.90;3.70;;;;;;;;;;5118206;28;20283;-60
2022/08/16 09:51:57;;;;;;;3.90;3.70;;;;;;;;;;5114533;28;20209;-59
2022/08/16 09:54:44;;;;;;;3.97;3.78;;;;;;;;;;5115113;28;20599;-59
2022/08/16 09:57:32;;;;;;;4.00;3.80;;;;;;;;;;5101022;28;20772;-59
2022/08/16 10:00:18;;;;;;;3.85;3.65;;;;;;;;;;5116223;28;20287;-59
2022/08/16 10:03:05;;;;;;;3.67;3.47;;;;;;;;;;5098446;27;20207;-59
2022/08/16 10:05:54;;;;;;;3.85;3.65;;;;;;;;;;5123679;27;20277;-59
2022/08/16 10:08:41;;;;;;;4.00;3.70;;;;;;;;;;5115548;27;20227;-59
2022/08/16 10:14:32;;;;;;;3.88;3.67;;;;;;;;;;5114518;27;20216;-59
2022/08/16 10:17:20;;;;;;;3.80;3.60;;;;;;;;;;5113635;27;20210;-60
2022/08/16 10:20:09;;;;;;;4.05;3.85;;;;;;;;;;5113507;27;20213;-59
2022/08/16 10:22:57;;;;;;;3.97;3.78;;;;;;;;;;5106911;27;20206;-60
2022/08/16 10:25:46;;;;;;;4.00;3.80;;;;;;;;;;5121417;27;20323;-59
2022/08/16 10:28:34;;;;;;;4.10;3.90;;;;;;;;;;5113088;27;20608;-59
2022/08/16 10:31:21;;;;;;;4.20;4.00;;;;;;;;;;5117253;27;20205;-59
2022/08/16 10:34:08;;;;;;;4.00;3.80;;;;;;;;;;5110255;27;20214;-59
2022/08/16 10:36:55;;;;;;;3.88;3.67;;;;;;;;;;5119844;27;20202;-59
2022/08/16 10:39:44;;;;;;;3.65;3.50;;;;;;;;;;5114991;27;20290;-59
2022/08/16 10:42:30;;;;;;;3.90;3.70;;;;;;;;;;5121063;27;20209;-60
2022/08/16 10:45:18;;;;;;;3.97;3.78;;;;;;;;;;5113959;27;20210;-59
2022/08/16 10:48:07;;;;;;;4.00;3.80;;;;;;;;;;5111029;27;20206;-59
2022/08/16 10:50:56;;;;;;;3.97;3.75;;;;;;;;;;5099840;27;20254;-58
2022/08/16 10:53:44;;;;;;;3.78;3.58;;;;;;;;;;5121609;27;20202;-58
2022/08/16 10:56:33;;;;;;;4.03;3.83;;;;;;;;;;5111530;27;20205;-58
2022/08/16 10:59:20;;;;;;;4.22;4.03;;;;;;;;;;5120333;27;20688;-58
2022/08/16 11:02:09;;;;;;;4.00;3.80;;;;;;;;;;5108565;27;20213;-58
2022/08/16 11:04:56;;;;;;;4.00;3.80;;;;;;;;;;5120832;27;20238;-58
2022/08/16 11:07:44;;;;;;;4.13;3.92;;;;;;;;;;5104304;27;20214;-59
2022/08/16 11:10:34;;;;;;;4.60;4.38;;;;;;;;;;5117062;27;20582;-58
2022/08/16 11:13:25;;;;;;;4.03;3.83;;;;;;;;;;5103530;27;20284;-58
2022/08/16 11:16:12;;;;;;;4.45;4.15;;;;;;;;;;5109038;27;20207;-58
2022/08/16 11:18:59;;;;;;;4.15;3.95;;;;;;;;;;5113069;27;20201;-59
2022/08/16 11:21:46;;;;;;;4.25;4.05;;;;;;;;;;5115736;27;20742;-59
2022/08/16 11:24:34;;;;;;;4.70;4.40;;;;;;;;;;5112097;27;20208;-58
2022/08/16 11:27:23;;;;;;;4.00;3.80;;;;;;;;;;5111568;27;20225;-59
2022/08/16 11:30:14;;;;;;;4.30;4.10;;;;;;;;;;5112172;27;20681;-59
2022/08/16 11:33:01;;;;;;;4.03;3.83;;;;;;;;;;5107101;27;20252;-58
2022/08/16 11:35:48;;;;;;;4.45;4.25;;;;;;;;;;5104491;27;20274;-58
2022/08/16 11:38:35;;;;;;;4.32;4.03;;;;;;;;;;5101598;28;20213;-59
2022/08/16 11:41:22;;;;;;;4.20;4.00;;;;;;;;;;5118416;27;20540;-60
2022/08/16 11:44:10;;;;;;;4.07;3.88;;;;;;;;;;5117533;27;20213;-59
2022/08/16 11:46:59;;;;;;;4.45;4.25;;;;;;;;;;5109791;27;20213;-58
2022/08/16 11:49:45;;;;;;;4.03;3.83;;;;;;;;;;5108966;27;20218;-59
2022/08/16 11:52:33;;;;;;;4.30;4.03;;;;;;;;;;5117043;27;20208;-58
2022/08/16 11:55:20;;;;;;;4.47;4.18;;;;;;;;;;5115900;27;20229;-59
2022/08/16 11:58:09;;;;;;;4.38;4.18;;;;;;;;;;5111827;27;20213;-60
2022/08/16 12:00:57;;;;;;;4.28;3.97;;;;;;;;;;5107075;27;20701;-60
2022/08/16 12:03:46;;;;;;;4.47;4.20;;;;;;;;;;5117538;27;20230;-59
2022/08/16 12:06:33;;;;;;;4.20;3.95;;;;;;;;;;5100292;28;20213;-59
2022/08/16 12:09:20;;;;;;;4.88;4.57;;;;;;;;;;5121113;27;20261;-59
2022/08/16 12:12:08;;;;;;;4.35;4.15;;;;;;;;;;5109931;27;20283;-59
2022/08/16 12:14:55;;;;;;;4.88;4.57;;;;;;;;;;5118714;27;20697;-59
2022/08/16 12:17:43;;;;;;;4.90;4.60;;;;;;;;;;5103917;27;20560;-60
2022/08/16 12:20:35;;;;;;;4.78;4.57;;;;;;;;;;5122104;27;20691;-60
2022/08/16 12:23:22;;;;;;;4.50;4.30;;;;;;;;;;5112923;27;20210;-59
2022/08/16 12:26:09;;;;;;;4.28;4.07;;;;;;;;;;5103999;28;20558;-59
2022/08/16 12:28:56;;;;;;;4.60;4.30;;;;;;;;;;5108574;27;20275;-60
2022/08/16 12:31:43;;;;;;;4.88;4.63;;;;;;;;;;5119660;27;20799;-59
2022/08/16 12:34:30;;;;;;;4.50;4.25;;;;;;;;;;5106581;27;20633;-60
2022/08/16 12:37:19;;;;;;;4.63;4.22;;;;;;;;;;5114979;27;20375;-60
2022/08/16 12:40:09;;;;;;;4.10;3.90;;;;;;;;;;5115093;27;20661;-59
2022/08/16 12:42:58;;;;;;;4.40;4.20;;;;;;;;;;5104053;27;20338;-59
2022/08/16 12:45:48;;;;;;;4.65;4.45;;;;;;;;;;5114070;27;20209;-60
2022/08/16 12:51:41;;;;;;;4.47;4.28;;;;;;;;;;5109992;27;20297;-60
2022/08/16 12:54:31;;;;;;;4.50;4.20;;;;;;;;;;5108266;28;20268;-59
2022/08/16 12:57:18;;;;;;;4.15;3.95;;;;;;;;;;5109180;27;20194;-60
2022/08/16 13:00:09;;;;;;;4.40;4.20;;;;;;;;;;5105205;28;20720;-59
2022/08/16 13:02:57;;;;;;;4.85;4.53;;;;;;;;;;5109619;27;20213;-60
2022/08/16 13:05:44;;;;;;;3.92;3.72;;;;;;;;;;5108085;27;20702;-59
2022/08/16 13:08:31;;;;;;;4.00;3.80;;;;;;;;;;5110109;28;20217;-60
2022/08/16 13:11:24;;;;;;;3.80;3.60;;;;;;;;;;5097978;28;20214;-59
2022/08/16 13:14:11;;;;;;;4.40;4.10;;;;;;;;;;5116206;27;20558;-60
2022/08/16 13:16:59;;;;;;;4.38;4.18;;;;;;;;;;5104875;28;20216;-59
2022/08/16 13:19:46;;;;;;;4.13;3.92;;;;;;;;;;5113323;28;20216;-59
2022/08/16 13:22:34;;;;;;;4.15;3.90;;;;;;;;;;5103609;28;20700;-60
2022/08/16 13:25:25;;;;;;;4.03;3.83;;;;;;;;;;5116646;28;20204;-60
2022/08/16 13:28:14;;;;;;;3.90;3.70;;;;;;;;;;5111271;28;20622;-59
2022/08/16 13:31:02;;;;;;;4.18;3.97;;;;;;;;;;5111496;28;20202;-60
2022/08/16 13:33:49;;;;;;;3.83;3.63;;;;;;;;;;5102952;28;20612;-60
2022/08/16 13:36:36;;;;;;;4.03;3.83;;;;;;;;;;5107523;27;20256;-60
2022/08/16 13:39:23;;;;;;;4.20;4.00;;;;;;;;;;5101308;27;20198;-59
2022/08/16 13:42:10;;;;;;;3.78;3.58;;;;;;;;;;5113539;27;20205;-59
2022/08/16 13:44:59;;;;;;;3.78;3.50;;;;;;;;;;5100204;28;20323;-59
2022/08/16 13:47:47;;;;;;;4.00;3.80;;;;;;;;;;5115278;27;20209;-60
2022/08/16 13:50:35;;;;;;;4.10;3.90;;;;;;;;;;5113030;27;20626;-60
2022/08/16 13:53:23;;;;;;;3.70;3.50;;;;;;;;;;5113681;27;20201;-59
2022/08/16 13:56:10;;;;;;;4.03;3.83;;;;;;;;;;5110765;27;20214;-59
2022/08/16 13:58:57;;;;;;;3.60;3.40;;;;;;;;;;5112995;27;20207;-59
2022/08/16 14:01:45;;;;;;;3.80;3.60;;;;;;;;;;5105574;27;20202;-60
2022/08/16 14:04:36;;;;;;;3.80;3.60;;;;;;;;;;5119113;27;20232;-60
2022/08/16 14:07:23;;;;;;;3.40;3.30;;;;;;;;;;5111032;27;20198;-60
2022/08/16 14:10:13;;;;;;;3.72;3.53;;;;;;;;;;5110666;27;20197;-60
2022/08/16 14:13:01;;;;;;;3.80;3.60;;;;;;;;;;5108811;27;20217;-58
2022/08/16 14:15:48;;;;;;;3.70;3.50;;;;;;;;;;5115673;27;20226;-59
2022/08/16 14:18:36;;;;;;;3.33;3.20;;;;;;;;;;5120645;27;20212;-58
2022/08/16 14:21:24;;;;;;;3.88;3.67;;;;;;;;;;5118523;27;20198;-59
2022/08/16 14:24:12;;;;;;;3.80;3.60;;;;;;;;;;5111322;27;20209;-59
2022/08/16 14:26:59;;;;;;;3.65;3.45;;;;;;;;;;5115962;27;20642;-58
2022/08/16 14:29:48;;;;;;;3.45;3.30;;;;;;;;;;5118580;27;20212;-58
2022/08/16 14:32:35;;;;;;;3.83;3.63;;;;;;;;;;5106700;27;20213;-58
2022/08/16 14:35:27;;;;;;;3.50;3.30;;;;;;;;;;5117820;27;20229;-59
2022/08/16 14:38:14;;;;;;;3.40;3.30;;;;;;;;;;5109405;27;20202;-59
2022/08/16 14:41:01;;;;;;;3.58;3.35;;;;;;;;;;5122023;27;20264;-59
2022/08/16 14:43:48;;;;;;;3.22;3.13;;;;;;;;;;5105815;27;20202;-59
2022/08/16 14:46:35;;;;;;;3.38;3.28;;;;;;;;;;5116444;27;20276;-59
2022/08/16 14:49:22;;;;;;;3.10;3.00;;;;;;;;;;5108151;28;20205;-59
2022/08/16 14:52:12;;;;;;;3.40;3.20;;;;;;;;;;5110990;27;20781;-59
2022/08/16 14:54:59;;;;;;;3.42;3.22;;;;;;;;;;5108621;27;20225;-59
2022/08/16 14:57:46;;;;;;;3.70;3.53;;;;;;;;;;5112410;27;20201;-59
2022/08/16 15:00:34;;;;;;;3.50;3.30;;;;;;;;;;5107725;28;20198;-59
2022/08/16 15:03:22;;;;;;;3.40;3.20;;;;;;;;;;5105506;27;20640;-59
2022/08/16 15:06:09;;;;;;;3.70;3.50;;;;;;;;;;5095060;28;20244;-59
2022/08/16 15:08:57;;;;;;;3.58;3.38;;;;;;;;;;5090727;28;20202;-59
2022/08/16 15:11:44;;;;;;;3.42;3.33;;;;;;;;;;5084290;28;20230;-59
2022/08/16 15:14:31;;;;;;;3.60;3.40;;;;;;;;;;5078173;28;20229;-60
2022/08/16 15:17:19;;;;;;;3.40;3.30;;;;;;;;;;5077928;28;20214;-59
2022/08/16 15:20:07;;;;;;;3.17;3.08;;;;;;;;;;5078732;28;20346;-59
2022/08/16 15:22:54;;;;;;;3.53;3.33;;;;;;;;;;5078314;28;20210;-59
2022/08/16 15:25:46;;;;;;;3.75;3.55;;;;;;;;;;5076812;28;20237;-59
2022/08/16 15:28:35;;;;;;;3.60;3.40;;;;;;;;;;5076223;28;20199;-58
2022/08/16 15:31:25;;;;;;;3.33;3.22;;;;;;;;;;5084778;28;20281;-59
2022/08/16 15:34:13;;;;;;;3.50;3.30;;;;;;;;;;5081059;28;20269;-59
2022/08/16 15:37:00;;;;;;;3.72;3.53;;;;;;;;;;5079884;28;20233;-59
2022/08/16 15:39:47;;;;;;;3.42;3.22;;;;;;;;;;5078065;28;20214;-59
2022/08/16 15:42:35;;;;;;;3.90;3.70;;;;;;;;;;5084833;28;20539;-59
2022/08/16 15:48:25;;;;;;;3.85;3.65;;;;;;;;;;5094272;28;20197;-60
2022/08/16 15:51:12;;;;;;;3.78;3.58;;;;;;;;;;5091362;28;20207;-59
2022/08/16 15:53:59;;;;;;;3.95;3.75;;;;;;;;;;5095113;28;20321;-59
2022/08/16 15:56:50;;;;;;;3.60;3.40;;;;;;;;;;5086542;28;20259;-59
2022/08/16 15:59:38;;;;;;;3.78;3.58;;;;;;;;;;5073812;28;20211;-59
2022/08/16 16:02:27;;;;;;;3.92;3.72;;;;;;;;;;5078016;28;20665;-59
2022/08/16 16:05:17;;;;;;;3.97;3.78;;;;;;;;;;5100484;27;20612;-60
2022/08/16 16:08:04;;;;;;;3.85;3.63;;;;;;;;;;5115851;27;20662;-60
2022/08/16 16:10:57;;;;;;;4.10;3.90;;;;;;;;;;5100600;27;20222;-60
2022/08/16 16:13:43;;;;;;;3.90;3.70;;;;;;;;;;5109268;27;20673;-60
2022/08/16 16:16:32;;;;;;;3.65;3.47;;;;;;;;;;5109698;27;20235;-60
2022/08/16 16:19:20;;;;;;;4.05;3.85;;;;;;;;;;5115620;27;20190;-60
2022/08/16 16:22:07;;;;;;;3.83;3.63;;;;;;;;;;5102970;27;20210;-59
2022/08/16 16:24:54;;;;;;;3.83;3.63;;;;;;;;;;5107326;27;20684;-59
2022/08/16 16:27:41;;;;;;;4.35;4.15;;;;;;;;;;5098827;27;20202;-59
2022/08/16 16:30:30;;;;;;;3.75;3.55;;;;;;;;;;5100034;28;20205;-60
2022/08/16 16:33:22;;;;;;;4.13;3.92;;;;;;;;;;5109891;27;20288;-59
2022/08/16 16:36:13;;;;;;;4.05;3.85;;;;;;;;;;5117586;27;20990;-60
2022/08/16 16:39:01;;;;;;;4.00;3.80;;;;;;;;;;5112318;27;20243;-59
2022/08/16 16:41:48;;;;;;;4.35;4.05;;;;;;;;;;5108912;27;20804;-59
2022/08/16 16:44:35;;;;;;;4.15;3.88;;;;;;;;;;5109713;27;20686;-60
2022/08/16 16:47:22;;;;;;;4.43;4.13;;;;;;;;;;5110931;27;20205;-59
2022/08/16 16:50:11;;;;;;;4.68;4.38;;;;;;;;;;5106281;28;20202;-60
2022/08/16 16:52:59;;;;;;;4.40;4.10;;;;;;;;;;5105560;27;20204;-59
2022/08/16 16:55:47;;;;;;;4.65;4.35;;;;;;;;;;5106469;27;20230;-59